createdAt,value
2019-03-12T00:00:16.148Z,2.00
2019-03-12T00:02:44.674Z,2.00
2019-03-12T00:05:13.125Z,2.10
2019-03-12T00:07:41.608Z,2.00
2019-03-12T00:10:10.198Z,2.10
2019-03-12T00:12:38.669Z,2.10
2019-03-12T00:15:07.872Z,2.10
2019-03-12T00:17:36.363Z,2.10
2019-03-12T00:20:08.747Z,2.20
2019-03-12T00:22:37.225Z,2.20
2019-03-12T00:25:06.019Z,2.20
2019-03-12T00:27:34.489Z,2.30
2019-03-12T00:30:03.443Z,2.20
2019-03-12T00:32:31.977Z,2.20
2019-03-12T00:35:00.567Z,2.20
2019-03-12T00:37:29.126Z,2.20
2019-03-12T00:39:57.653Z,2.20
2019-03-12T00:42:26.179Z,2.20
2019-03-12T00:44:54.739Z,2.20
2019-03-12T00:47:23.359Z,2.20
2019-03-12T00:49:51.839Z,2.20
2019-03-12T00:52:20.284Z,2.20
2019-03-12T00:54:48.842Z,2.20
2019-03-12T00:57:17.314Z,2.20
2019-03-12T00:59:45.801Z,2.20
2019-03-12T01:02:14.357Z,2.10
2019-03-12T01:04:42.798Z,2.20
2019-03-12T01:07:11.376Z,2.20
2019-03-12T01:09:39.896Z,2.10
2019-03-12T01:12:08.382Z,2.20
2019-03-12T01:14:36.913Z,2.20
2019-03-12T01:17:05.494Z,2.20
2019-03-12T01:19:34.028Z,2.10
2019-03-12T01:22:02.513Z,2.10
2019-03-12T01:24:31.009Z,2.10
2019-03-12T01:26:59.493Z,2.10
2019-03-12T01:29:28.045Z,2.10
2019-03-12T01:31:56.525Z,2.20
2019-03-12T01:34:25.846Z,2.10
2019-03-12T01:36:54.365Z,2.10
2019-03-12T01:39:22.907Z,2.10
2019-03-12T01:41:51.438Z,2.10
2019-03-12T01:44:19.951Z,2.10
2019-03-12T01:46:48.520Z,2.10
2019-03-12T01:49:17.115Z,2.10
2019-03-12T01:51:45.565Z,2.00
2019-03-12T01:54:14.049Z,2.00
2019-03-12T01:56:42.537Z,1.90
2019-03-12T01:59:11.030Z,1.80
2019-03-12T02:01:39.550Z,1.80
2019-03-12T02:04:08.016Z,1.80
2019-03-12T02:06:36.632Z,1.80
2019-03-12T02:09:07.346Z,1.70
2019-03-12T02:11:35.802Z,1.70
2019-03-12T02:14:22.176Z,1.70
2019-03-12T02:16:50.710Z,1.70
2019-03-12T02:19:19.265Z,1.70
2019-03-12T02:21:47.916Z,1.70
2019-03-12T02:24:16.401Z,1.60
2019-03-12T02:26:44.899Z,1.60
2019-03-12T02:29:13.351Z,1.60
2019-03-12T02:31:41.837Z,1.60
2019-03-12T02:34:10.468Z,1.60
2019-03-12T02:36:39.024Z,1.60
2019-03-12T02:39:08.619Z,1.60
2019-03-12T02:41:37.137Z,1.70
2019-03-12T02:44:05.780Z,1.60
2019-03-12T02:46:34.329Z,1.60
2019-03-12T02:49:02.868Z,1.50
2019-03-12T02:51:31.428Z,1.50
2019-03-12T02:54:00.052Z,1.50
2019-03-12T02:56:28.514Z,1.50
2019-03-12T02:58:57.073Z,1.50
2019-03-12T03:01:25.538Z,1.50
2019-03-12T03:03:54.136Z,1.50
2019-03-12T03:06:24.303Z,1.50
2019-03-12T03:08:52.833Z,1.50
2019-03-12T03:11:21.319Z,1.50
2019-03-12T03:13:49.809Z,1.50
2019-03-12T03:16:18.396Z,1.50
2019-03-12T03:18:46.972Z,1.50
2019-03-12T03:21:15.443Z,1.60
2019-03-12T03:23:43.998Z,1.50
2019-03-12T03:26:12.551Z,1.60
2019-03-12T03:28:41.164Z,1.60
2019-03-12T03:31:09.733Z,1.60
2019-03-12T03:33:38.548Z,1.60
2019-03-12T03:36:07.174Z,1.60
2019-03-12T03:38:35.706Z,1.60
2019-03-12T03:41:04.369Z,1.60
2019-03-12T03:43:32.857Z,1.60
2019-03-12T03:46:01.341Z,1.60
2019-03-12T03:48:29.787Z,1.50
2019-03-12T03:50:58.340Z,1.50
2019-03-12T03:53:26.810Z,1.50
2019-03-12T03:55:55.342Z,1.50
2019-03-12T03:58:23.954Z,1.50
2019-03-12T04:00:52.396Z,1.60
2019-03-12T04:03:20.963Z,1.60
2019-03-12T04:05:49.498Z,1.60
2019-03-12T04:08:18.033Z,1.60
2019-03-12T04:10:46.588Z,1.60
2019-03-12T04:13:15.118Z,1.60
2019-03-12T04:15:43.729Z,1.60
2019-03-12T04:18:12.622Z,1.60
2019-03-12T04:20:41.167Z,1.60
2019-03-12T04:23:09.686Z,1.60
2019-03-12T04:25:38.175Z,1.60
2019-03-12T04:28:06.627Z,1.60
2019-03-12T04:30:35.213Z,1.60
2019-03-12T04:33:03.907Z,1.60
2019-03-12T04:35:33.789Z,1.60
2019-03-12T04:38:02.283Z,1.60
2019-03-12T04:40:30.850Z,1.60
2019-03-12T04:42:59.310Z,1.60
2019-03-12T04:45:27.860Z,1.60
2019-03-12T04:47:56.351Z,1.60
2019-03-12T04:50:24.800Z,1.60
2019-03-12T04:52:53.368Z,1.60
2019-03-12T04:55:21.832Z,1.70
2019-03-12T04:57:50.355Z,1.70
2019-03-12T05:00:20.141Z,1.70
2019-03-12T05:02:48.771Z,1.70
2019-03-12T05:05:17.442Z,1.70
2019-03-12T05:07:46.190Z,1.70
2019-03-12T05:10:17.941Z,1.80
2019-03-12T05:12:46.450Z,1.70
2019-03-12T05:15:17.030Z,1.80
2019-03-12T05:17:45.967Z,1.80
2019-03-12T05:20:15.403Z,1.80
2019-03-12T05:22:43.959Z,1.80
2019-03-12T05:25:13.763Z,1.80
2019-03-12T05:27:42.432Z,1.80
2019-03-12T05:30:13.983Z,1.80
2019-03-12T05:32:42.449Z,1.80
2019-03-12T05:35:10.989Z,1.70
2019-03-12T05:37:40.114Z,1.80
2019-03-12T05:40:10.752Z,1.70
2019-03-12T05:42:39.306Z,1.70
2019-03-12T05:45:17.711Z,1.70
2019-03-12T05:47:46.189Z,1.70
2019-03-12T05:50:18.727Z,1.70
2019-03-12T05:52:48.957Z,1.80
2019-03-12T05:55:17.995Z,1.70
2019-03-12T05:57:46.455Z,1.70
2019-03-12T06:00:17.587Z,1.70
2019-03-12T06:02:46.071Z,1.70
2019-03-12T06:05:14.667Z,1.70
2019-03-12T06:07:43.201Z,1.70
2019-03-12T06:10:15.953Z,1.70
2019-03-12T06:12:44.403Z,1.70
2019-03-12T06:15:16.565Z,1.70
2019-03-12T06:17:45.159Z,1.70
2019-03-12T06:20:14.685Z,1.70
2019-03-12T06:22:43.484Z,1.70
2019-03-12T06:25:12.072Z,1.80
2019-03-12T06:27:40.630Z,1.80
2019-03-12T06:30:19.960Z,1.80
2019-03-12T06:32:50.065Z,1.80
2019-03-12T06:35:20.210Z,1.80
2019-03-12T06:37:50.304Z,1.90
2019-03-12T06:40:20.416Z,1.90
2019-03-12T06:42:50.596Z,1.90
2019-03-12T06:45:26.526Z,1.90
2019-03-12T06:48:02.463Z,1.80
2019-03-12T06:50:35.275Z,1.90
2019-03-12T06:53:20.561Z,1.90
2019-03-12T06:55:59.414Z,1.90
2019-03-12T06:58:32.255Z,1.90
2019-03-12T07:01:11.480Z,1.90
2019-03-12T07:03:57.725Z,1.90
2019-03-12T07:06:44.217Z,1.90
2019-03-12T07:09:14.340Z,1.90
2019-03-12T07:11:55.989Z,2.00
2019-03-12T07:14:35.195Z,2.00
2019-03-12T07:17:07.827Z,2.10
2019-03-12T07:19:43.829Z,2.20
2019-03-12T07:22:19.775Z,2.20
2019-03-12T07:24:52.392Z,2.30
2019-03-12T07:27:22.620Z,2.30
2019-03-12T07:30:09.020Z,2.40
2019-03-12T07:32:39.172Z,2.40
2019-03-12T07:35:09.422Z,2.50
2019-03-12T07:37:54.536Z,2.50
2019-03-12T07:40:39.568Z,2.60
2019-03-12T07:43:25.818Z,2.70
2019-03-12T07:46:01.413Z,2.70
2019-03-12T07:48:31.554Z,2.70
2019-03-12T07:51:13.259Z,2.70
2019-03-12T07:53:43.397Z,2.70
2019-03-12T07:56:19.863Z,2.70
2019-03-12T07:59:02.424Z,2.70
2019-03-12T08:01:32.639Z,2.80
2019-03-12T08:04:15.001Z,2.90
2019-03-12T08:06:47.889Z,3.00
2019-03-12T08:09:20.990Z,3.10
2019-03-12T08:11:54.015Z,3.30
2019-03-12T08:14:40.301Z,3.60
2019-03-12T08:17:19.624Z,4.10
2019-03-12T08:20:06.178Z,4.50
2019-03-12T08:22:41.887Z,4.80
2019-03-12T08:25:27.189Z,5.10
2019-03-12T08:28:06.395Z,5.30
2019-03-12T08:30:36.522Z,5.50
2019-03-12T08:33:06.663Z,5.70
2019-03-12T08:35:53.098Z,5.80
2019-03-12T08:38:41.176Z,5.90
2019-03-12T08:41:14.062Z,6.20
2019-03-12T08:43:46.994Z,6.60
2019-03-12T08:46:22.331Z,6.80
2019-03-12T08:49:03.231Z,6.80
2019-03-12T08:51:36.290Z,6.80
2019-03-12T08:54:22.672Z,6.50
2019-03-12T08:56:55.876Z,6.20
2019-03-12T08:59:43.885Z,5.80
2019-03-12T09:02:19.717Z,5.60
2019-03-12T09:04:49.833Z,5.30
2019-03-12T09:07:19.957Z,5.30
2019-03-12T09:09:52.543Z,5.50
2019-03-12T09:12:31.329Z,5.50
2019-03-12T09:15:13.287Z,5.40
2019-03-12T09:17:58.603Z,5.20
2019-03-12T09:20:44.762Z,5.10
2019-03-12T09:23:17.650Z,5.10
2019-03-12T09:26:04.244Z,5.10
2019-03-12T09:28:39.980Z,5.20
2019-03-12T09:31:12.926Z,5.40
2019-03-12T09:33:46.074Z,5.30
2019-03-12T09:36:19.175Z,5.30
2019-03-12T09:38:49.352Z,5.20
2019-03-12T09:41:28.628Z,5.20
2019-03-12T09:44:07.566Z,5.30
2019-03-12T09:46:52.602Z,5.60
2019-03-12T09:49:27.611Z,5.70
2019-03-12T09:52:02.931Z,5.90
2019-03-12T09:54:41.475Z,5.80
2019-03-12T09:57:17.705Z,5.70
2019-03-12T09:59:50.235Z,5.70
2019-03-12T10:02:32.418Z,5.60
2019-03-12T10:05:08.257Z,5.50
2019-03-12T10:07:50.230Z,5.40
2019-03-12T10:10:26.231Z,5.30
2019-03-12T10:12:59.364Z,5.20
2019-03-12T10:15:38.171Z,5.30
2019-03-12T10:18:24.949Z,5.30
2019-03-12T10:20:58.029Z,5.10
2019-03-12T10:23:36.870Z,5.10
2019-03-12T10:26:07.061Z,5.10
2019-03-12T10:28:49.217Z,5.10
2019-03-12T10:31:24.841Z,5.30
2019-03-12T10:33:57.696Z,5.70
2019-03-12T10:36:30.891Z,6.40
2019-03-12T10:39:51.646Z,7.00
2019-03-12T10:42:30.638Z,7.50
2019-03-12T10:45:03.479Z,8.20
2019-03-12T10:47:51.578Z,8.70
2019-03-12T10:50:20.041Z,8.90
2019-03-12T10:52:48.662Z,8.50
2019-03-12T10:55:17.166Z,8.30
2019-03-12T10:57:45.628Z,8.60
2019-03-12T11:00:17.432Z,9.10
2019-03-12T11:02:46.038Z,9.30
2019-03-12T11:05:15.192Z,9.50
2019-03-12T11:07:43.647Z,9.70
2019-03-12T11:12:43.333Z,10.10
2019-03-12T11:15:13.226Z,10.10
2019-03-12T11:17:49.672Z,10.30
2019-03-12T11:20:20.313Z,10.40
2019-03-12T11:22:48.947Z,10.10
2019-03-12T11:25:27.473Z,9.70
2019-03-12T11:27:48.025Z,9.30
2019-03-12T11:30:18.667Z,9.20
2019-03-12T11:32:47.288Z,9.40
2019-03-12T11:35:15.813Z,9.90
2019-03-12T11:37:44.287Z,9.90
2019-03-12T11:40:31.674Z,10.30
2019-03-12T11:42:56.591Z,10.80
2019-03-12T11:45:35.557Z,11.10
2019-03-12T11:47:55.450Z,11.50
2019-03-12T11:50:25.082Z,11.60
2019-03-12T11:52:57.440Z,11.70
2019-03-12T11:55:24.279Z,12.00
2019-03-12T11:57:53.006Z,11.50
2019-03-12T12:00:31.214Z,11.40
2019-03-12T12:03:00.957Z,11.60
2019-03-12T12:05:29.614Z,11.80
2019-03-12T12:07:59.034Z,11.80
2019-03-12T12:10:27.653Z,12.00
2019-03-12T12:12:56.279Z,12.20
2019-03-12T12:15:24.821Z,12.50
2019-03-12T12:17:53.374Z,12.80
2019-03-12T12:20:29.737Z,13.20
2019-03-12T12:22:52.173Z,13.50
2019-03-12T12:25:21.178Z,13.80
2019-03-12T12:27:49.690Z,13.90
2019-03-12T12:30:22.932Z,13.70
2019-03-12T12:32:51.615Z,13.60
2019-03-12T12:35:20.109Z,13.40
2019-03-12T12:37:48.654Z,13.30
2019-03-12T12:40:20.216Z,13.50
2019-03-12T12:42:48.690Z,13.30
2019-03-12T12:45:29.556Z,12.90
2019-03-12T12:47:58.114Z,12.80
2019-03-12T12:50:26.743Z,12.90
2019-03-12T12:52:55.281Z,12.80
2019-03-12T12:55:23.880Z,12.80
2019-03-12T12:57:52.361Z,12.60
2019-03-12T13:00:23.022Z,12.80
2019-03-12T13:02:51.856Z,12.80
2019-03-12T13:05:20.424Z,13.00
2019-03-12T13:07:49.029Z,12.90
2019-03-12T13:10:22.567Z,12.80
2019-03-12T13:12:51.159Z,12.90
2019-03-12T13:15:19.781Z,12.70
2019-03-12T13:17:48.326Z,12.50
2019-03-12T13:20:16.952Z,12.70
2019-03-12T13:22:45.491Z,12.40
2019-03-12T13:25:15.201Z,12.30
2019-03-12T13:27:44.046Z,12.30
2019-03-12T13:30:17.718Z,12.50
2019-03-12T13:32:46.315Z,12.60
2019-03-12T13:35:16.320Z,12.70
2019-03-12T13:37:44.908Z,12.90
2019-03-12T13:40:18.446Z,13.20
2019-03-12T13:42:47.246Z,13.50
2019-03-12T13:45:23.912Z,13.60
2019-03-12T13:47:52.473Z,13.70
2019-03-12T13:50:21.384Z,13.90
2019-03-12T13:52:50.103Z,13.80
2019-03-12T13:55:18.811Z,13.70
2019-03-12T13:57:47.384Z,13.40
2019-03-12T14:00:25.746Z,13.50
2019-03-12T14:02:54.555Z,13.70
2019-03-12T14:05:23.174Z,13.60
2019-03-12T14:07:51.815Z,13.80
2019-03-12T14:10:29.388Z,13.50
2019-03-12T14:12:58.288Z,13.40
2019-03-12T14:15:40.334Z,13.50
2019-03-12T14:18:08.865Z,13.80
2019-03-12T14:20:48.401Z,14.00
2019-03-12T14:23:22.875Z,14.10
2019-03-12T14:25:51.479Z,13.90
2019-03-12T14:28:20.259Z,13.60
2019-03-12T14:30:48.986Z,13.20
2019-03-12T14:33:17.555Z,13.20
2019-03-12T14:35:51.477Z,13.20
2019-03-12T14:38:16.507Z,13.10
2019-03-12T14:40:45.114Z,13.20
2019-03-12T14:43:13.648Z,13.00
2019-03-12T14:45:49.512Z,13.00
2019-03-12T14:48:41.581Z,12.80
2019-03-12T14:51:35.925Z,12.30
2019-03-12T14:54:08.995Z,12.20
2019-03-12T14:56:37.598Z,12.00
2019-03-12T14:59:06.160Z,11.90
2019-03-12T15:01:34.881Z,11.60
2019-03-12T15:04:03.719Z,11.30
2019-03-12T15:06:32.405Z,11.00
2019-03-12T15:09:00.866Z,10.80
2019-03-12T15:11:29.356Z,10.80
2019-03-12T15:13:57.982Z,10.90
2019-03-12T15:16:26.532Z,11.10
2019-03-12T15:18:55.096Z,11.00
2019-03-12T15:21:23.607Z,11.20
2019-03-12T15:23:52.322Z,11.30
2019-03-12T15:26:20.786Z,11.50
2019-03-12T15:28:49.379Z,11.50
2019-03-12T15:31:17.907Z,11.40
2019-03-12T15:33:46.410Z,11.30
2019-03-12T15:36:14.986Z,11.10
2019-03-12T15:38:43.446Z,10.90
2019-03-12T15:41:12.011Z,10.70
2019-03-12T15:43:40.548Z,10.60
2019-03-12T15:46:09.066Z,10.50
2019-03-12T15:48:37.566Z,10.30
2019-03-12T15:51:06.180Z,10.20
2019-03-12T15:53:34.672Z,10.10
2019-03-12T15:56:03.305Z,9.90
2019-03-12T15:58:31.862Z,9.80
2019-03-12T16:01:02.639Z,9.80
2019-03-12T16:03:30.522Z,9.60
2019-03-12T16:05:59.088Z,9.50
2019-03-12T16:08:27.609Z,9.40
2019-03-12T16:10:58.353Z,9.40
2019-03-12T16:13:26.460Z,9.40
2019-03-12T16:15:55.020Z,9.40
2019-03-12T16:18:23.513Z,9.40
2019-03-12T16:20:51.989Z,9.40
2019-03-12T16:23:20.443Z,9.40
2019-03-12T16:25:48.970Z,9.30
2019-03-12T16:28:17.477Z,9.20
2019-03-12T16:30:45.994Z,9.20
2019-03-12T16:33:14.579Z,9.10
2019-03-12T16:35:43.125Z,9.00
2019-03-12T16:38:11.671Z,8.90
2019-03-12T16:40:40.163Z,8.80
2019-03-12T16:43:08.621Z,8.70
2019-03-12T16:45:37.185Z,8.60
2019-03-12T16:48:05.821Z,8.60
2019-03-12T16:50:34.399Z,8.60
2019-03-12T16:53:03.041Z,8.60
2019-03-12T16:55:31.634Z,8.60
2019-03-12T16:58:00.194Z,8.50
2019-03-12T17:00:28.780Z,8.50
2019-03-12T17:02:57.536Z,8.40
2019-03-12T17:05:26.615Z,8.30
2019-03-12T17:07:55.206Z,8.20
2019-03-12T17:10:23.726Z,8.20
2019-03-12T17:12:52.215Z,8.10
2019-03-12T17:15:25.758Z,8.00
2019-03-12T17:17:54.416Z,7.90
2019-03-12T17:20:22.962Z,7.80
2019-03-12T17:22:51.490Z,7.70
2019-03-12T17:25:19.983Z,7.70
2019-03-12T17:27:51.425Z,7.60
2019-03-12T17:30:22.746Z,7.50
2019-03-12T17:32:51.259Z,7.40
2019-03-12T17:35:31.595Z,7.30
2019-03-12T17:38:00.134Z,7.30
2019-03-12T17:40:28.621Z,7.20
2019-03-12T17:42:57.143Z,7.20
2019-03-12T17:45:25.695Z,7.10
2019-03-12T17:47:54.228Z,7.00
2019-03-12T17:50:22.790Z,7.00
2019-03-12T17:52:51.284Z,7.00
2019-03-12T17:55:20.070Z,6.90
2019-03-12T17:57:50.827Z,6.90
2019-03-12T18:00:24.341Z,6.90
2019-03-12T18:02:52.897Z,6.90
2019-03-12T18:05:22.076Z,6.90
2019-03-12T18:07:50.613Z,6.90
2019-03-12T18:10:19.202Z,6.80
2019-03-12T18:12:47.781Z,6.80
2019-03-12T18:15:20.080Z,6.70
2019-03-12T18:17:49.013Z,6.70
2019-03-12T18:20:18.658Z,6.70
2019-03-12T18:22:47.280Z,6.60
2019-03-12T18:25:30.677Z,6.60
2019-03-12T18:27:59.225Z,6.60
2019-03-12T18:30:27.861Z,6.60
2019-03-12T18:32:56.424Z,6.60
2019-03-12T18:35:24.883Z,6.50
2019-03-12T18:37:53.391Z,6.50
2019-03-12T18:40:23.099Z,6.50
2019-03-12T18:42:51.654Z,6.50
2019-03-12T18:45:31.476Z,6.50
2019-03-12T18:47:59.982Z,6.40
2019-03-12T18:50:28.642Z,6.40
2019-03-12T18:52:57.285Z,6.30
2019-03-12T18:55:31.601Z,6.30
2019-03-12T18:58:00.337Z,6.30
2019-03-12T19:00:29.355Z,6.40
2019-03-12T19:02:57.920Z,6.40
2019-03-12T19:05:28.208Z,6.40
2019-03-12T19:07:56.847Z,6.40
2019-03-12T19:10:25.653Z,6.40
2019-03-12T19:12:54.317Z,6.40
2019-03-12T19:15:22.776Z,6.40
2019-03-12T19:17:51.322Z,6.40
2019-03-12T19:20:20.464Z,6.40
2019-03-12T19:22:49.168Z,6.40
2019-03-12T19:25:38.448Z,6.40
2019-03-12T19:28:07.022Z,6.50
2019-03-12T19:30:35.676Z,6.50
2019-03-12T19:33:10.025Z,6.60
2019-03-12T19:35:38.810Z,6.60
2019-03-12T19:38:07.703Z,6.60
2019-03-12T19:40:38.955Z,6.60
2019-03-12T19:43:07.586Z,6.70
2019-03-12T19:45:36.244Z,6.70
2019-03-12T19:48:05.234Z,6.70
2019-03-12T19:50:34.029Z,6.80
2019-03-12T19:53:02.635Z,6.80
2019-03-12T19:55:50.028Z,6.80
2019-03-12T19:58:18.495Z,6.80
2019-03-12T20:00:48.345Z,6.80
2019-03-12T20:03:17.269Z,6.80
2019-03-12T20:05:45.888Z,6.80
2019-03-12T20:08:14.545Z,6.90
2019-03-12T20:11:02.515Z,6.90
2019-03-12T20:13:50.324Z,6.90
2019-03-12T20:16:38.580Z,6.90
2019-03-12T20:19:28.888Z,6.90
2019-03-12T20:22:33.419Z,7.00
2019-03-12T20:25:39.156Z,7.00
2019-03-12T20:28:31.765Z,7.00
2019-03-12T20:31:34.613Z,7.10
2019-03-12T20:34:21.330Z,7.10
2019-03-12T20:37:18.391Z,7.10
2019-03-12T20:40:12.355Z,7.10
2019-03-12T20:42:43.880Z,7.10
2019-03-12T20:45:30.469Z,7.10
2019-03-12T20:48:02.123Z,7.10
2019-03-12T20:51:02.412Z,7.20
2019-03-12T20:53:53.468Z,7.20
2019-03-12T20:56:53.266Z,7.20
2019-03-12T20:59:59.186Z,7.20
2019-03-12T21:02:59.213Z,7.10
2019-03-12T21:05:53.050Z,7.10
2019-03-12T21:08:56.040Z,7.10
2019-03-12T21:11:48.807Z,7.10
2019-03-12T21:14:32.105Z,7.20
2019-03-12T21:17:25.806Z,7.20
2019-03-12T21:20:30.104Z,7.30
2019-03-12T21:23:19.737Z,7.30
2019-03-12T21:25:57.280Z,7.20
2019-03-12T21:28:31.548Z,7.20
2019-03-12T21:31:00.142Z,7.20
2019-03-12T21:33:28.602Z,7.10
2019-03-12T21:35:57.137Z,7.10
2019-03-12T21:38:25.708Z,7.00
2019-03-12T21:40:54.165Z,7.00
2019-03-12T21:43:22.838Z,7.00
2019-03-12T21:45:51.447Z,6.90
2019-03-12T21:48:20.061Z,6.90
2019-03-12T21:50:48.676Z,6.90
2019-03-12T21:53:17.172Z,6.90
2019-03-12T21:55:45.678Z,6.90
2019-03-12T21:58:14.177Z,6.90
2019-03-12T22:00:42.798Z,6.90
2019-03-12T22:03:11.326Z,6.90
2019-03-12T22:05:39.969Z,6.90
2019-03-12T22:08:08.450Z,6.90
2019-03-12T22:10:37.022Z,6.90
2019-03-12T22:13:05.559Z,7.00
2019-03-12T22:15:34.989Z,7.00
2019-03-12T22:18:03.565Z,7.00
2019-03-12T22:20:32.051Z,7.10
2019-03-12T22:23:05.181Z,7.10
2019-03-12T22:25:33.626Z,7.20
2019-03-12T22:28:02.114Z,7.30
2019-03-12T22:30:30.647Z,7.30
2019-03-12T22:32:59.209Z,7.40
2019-03-12T22:35:27.812Z,7.40
2019-03-12T22:37:56.342Z,7.50
2019-03-12T22:40:24.835Z,7.50
2019-03-12T22:42:53.335Z,7.60
2019-03-12T22:45:21.899Z,7.60
2019-03-12T22:47:50.356Z,7.60
2019-03-12T22:50:18.819Z,7.70
2019-03-12T22:52:47.317Z,7.70
2019-03-12T22:55:15.934Z,7.70
2019-03-12T22:57:44.423Z,7.80
2019-03-12T23:00:15.896Z,7.80
2019-03-12T23:02:44.473Z,7.80
2019-03-12T23:05:13.522Z,7.80
2019-03-12T23:07:42.059Z,7.80
2019-03-12T23:10:13.236Z,7.80
2019-03-12T23:12:41.833Z,7.70
2019-03-12T23:15:16.073Z,7.70
2019-03-12T23:17:44.593Z,7.80
2019-03-12T23:20:19.036Z,7.80
2019-03-12T23:22:47.530Z,7.80
2019-03-12T23:25:16.067Z,7.80
2019-03-12T23:27:44.621Z,7.80
2019-03-12T23:30:20.461Z,7.80
2019-03-12T23:32:49.085Z,7.80
2019-03-12T23:35:17.669Z,7.80
2019-03-12T23:37:46.305Z,7.80
2019-03-12T23:40:16.485Z,7.80
2019-03-12T23:42:45.083Z,7.80
2019-03-12T23:45:15.897Z,7.90
2019-03-12T23:47:44.701Z,7.90
2019-03-12T23:50:16.497Z,8.00
2019-03-12T23:52:45.126Z,8.00
2019-03-12T23:55:16.366Z,8.10
2019-03-12T23:57:44.986Z,8.10
